Date,TemperatureHighF,TemperatureAvgF,TemperatureLowF,DewpointHighF,DewpointAvgF,DewpointLowF,HumidityHigh,HumidityAvg,HumidityLow,PressureMaxIn,PressureMinIn,WindSpeedMaxMPH,WindSpeedAvgMPH,GustSpeedMaxMPH,PrecipitationSumIn
2013-4-1,63,50,40,43,39,32,90,68,42,30.17,29.93,6,2,15,0.10
2013-4-2,40,36,34,36,33,31,100,89,73,30.26,30.15,7,2,15,0.30
2013-4-3,50,41,34,34,28,23,100,61,38,30.28,30.16,10,3,17,0.00
2013-4-4,55,46,37,38,33,26,91,63,42,30.17,30.05,5,1,9,0.04
2013-4-5,72,56,42,37,33,28,69,44,26,30.19,29.96,11,2,17,0.00
2013-4-6,74,63,55,48,42,33,56,46,34,29.96,29.74,22,9,37,0.00
2013-4-7,75,65,58,56,53,47,80,65,46,29.87,29.69,14,6,29,0.00
2013-4-8,70,65,60,59,57,54,84,74,68,29.76,29.65,14,8,27,0.00
2013-4-9,79,70,63,62,58,55,79,68,50,29.75,29.65,15,8,24,0.00
2013-4-10,73,52,36,64,48,35,96,89,69,29.82,29.65,12,4,22,0.74
2013-4-11,51,40,32,36,32,30,97,76,47,29.84,29.74,8,5,18,0.00
2013-4-12,61,46,36,34,32,27,81,58,35,30.02,29.80,9,3,15,0.00
2013-4-13,67,56,41,46,39,33,75,55,41,30.05,29.78,11,3,18,0.00
2013-4-14,78,68,58,50,46,40,65,47,29,29.79,29.48,20,9,30,0.00
2013-4-15,78,68,58,62,58,50,90,71,56,29.76,29.61,16,5,23,0.00
2013-4-16,76,60,50,62,54,48,99,84,62,29.94,29.75,4,2,12,0.00
2013-4-17,82,70,52,67,61,50,96,75,57,29.94,29.57,17,8,32,0.00
2013-4-18,75,50,37,65,46,30,100,86,65,29.94,29.48,16,7,35,2.42
2013-4-19,55,43,33,30,27,22,78,56,31,30.10,29.93,11,6,18,0.00
2013-4-20,67,54,44,39,33,28,71,45,27,30.20,30.07,8,3,13,0.00
2013-4-21,66,58,51,41,37,29,63,46,27,30.25,30.09,12,5,20,0.00
2013-4-22,70,60,46,45,38,32,74,47,26,30.16,29.87,12,5,18,0.00
2013-4-23,62,50,35,55,44,34,95,82,54,30.07,29.77,9,3,15,0.20
2013-4-24,57,43,33,35,31,25,96,66,30,30.31,30.07,5,2,10,0.01
2013-4-25,72,54,37,34,30,25,77,44,21,30.37,30.20,10,3,17,0.00
2013-4-26,58,49,46,48,44,33,96,83,38,30.33,30.11,13,6,20,0.95
2013-4-27,55,51,49,54,50,48,100,97,96,30.14,29.96,13,2,18,0.37
2013-4-28,78,60,48,55,48,44,98,71,33,30.01,29.84,6,2,11,0.01
2013-4-29,84,70,57,60,54,48,84,59,30,29.87,29.71,14,6,20,0.00
2013-4-30,81,72,64,56,51,42,69,49,27,29.82,29.73,13,8,24,0.00